Whitewater, Indiana
Current Conditions -  °F | °C
As of 6:55 PM on Friday 31 Oct 2014 (Local Time) from KVES Reporting Station
Light Rain Light Rain  
Wind Chill: 26°   Ceiling: 1000
Heat Index: 37°   Visibility: 5mi
Dew Point: 37°   Wind: 23mph
Humidity: 100%   Direction: 10°N
Pressure: 29.94"   Gusts: 29mph
Location:  39.8311°N, 84.8879°W
Report Text: KVES 312255Z AUTO 01020G25KT 5SM -RA BKN010 OVC014 03/03 A2994 RMK AO2
Loading
Personal Weather Stations






























Interactive Weather Map
Tropical Storm Tracking
New forecast layout! Learn more

10-Day Weather Forecast

Advertisements
Track Severe Weather on mobile